Time;durP1;ratioP1;P1;durP2;ratioP2;P2;SDS_P1;SDS_P2;PMS_P1;PMS_P2;Temp;Humidity;BMP_temperature;BMP_pressure;BME280_temperature;BME280_humidity;BME280_pressure;Samples;Min_cycle;Max_cycle;Signal;HPM_P1;HPM_P2
2022/05/12 00:01:27;;;;;;;10.57;3.75;;;12.90;99.90;;;;;;4951756;29;20032;-47
2022/05/12 00:03:53;;;;;;;13.18;3.58;;;12.90;99.90;;;;;;4934274;29;20035;-47
2022/05/12 00:06:18;;;;;;;13.02;3.88;;;12.90;99.90;;;;;;4951530;29;20480;-46
2022/05/12 00:08:44;;;;;;;12.60;3.63;;;12.90;99.90;;;;;;4951638;29;20488;-47
2022/05/12 00:11:10;;;;;;;9.20;3.15;;;12.90;99.90;;;;;;4949592;29;20030;-47
2022/05/12 00:13:35;;;;;;;9.93;2.65;;;13.00;99.90;;;;;;4951241;28;20036;-47
2022/05/12 00:16:01;;;;;;;10.15;3.97;;;13.00;99.90;;;;;;4951005;29;20031;-46
2022/05/12 00:18:27;;;;;;;7.43;3.10;;;13.00;99.90;;;;;;4951524;29;20031;-46
2022/05/12 00:20:53;;;;;;;7.57;3.42;;;13.00;99.90;;;;;;4951535;29;20039;-49
2022/05/12 00:23:21;;;;;;;8.55;3.75;;;13.00;99.90;;;;;;4951217;28;20489;-47
2022/05/12 00:25:49;;;;;;;9.63;3.47;;;13.00;99.90;;;;;;4958819;28;20503;-47
2022/05/12 00:28:16;;;;;;;7.57;2.80;;;13.00;99.90;;;;;;4951984;29;20543;-47
2022/05/12 00:30:43;;;;;;;6.80;3.30;;;13.00;99.90;;;;;;4951801;29;20035;-49
2022/05/12 00:33:10;;;;;;;8.70;3.60;;;13.00;99.90;;;;;;4951235;28;20035;-52
2022/05/12 00:35:36;;;;;;;7.60;2.70;;;13.00;99.90;;;;;;4951704;29;20114;-46
2022/05/12 00:38:02;;;;;;;9.93;3.50;;;13.00;99.90;;;;;;4951683;29;20523;-49
2022/05/12 00:40:28;;;;;;;9.35;3.50;;;13.00;99.90;;;;;;4951741;29;20042;-50
2022/05/12 00:42:59;;;;;;;5.20;2.80;;;13.00;99.90;;;;;;4951314;28;20061;-47
2022/05/12 00:45:28;;;;;;;6.03;3.38;;;13.10;99.90;;;;;;4934289;29;20114;-49
2022/05/12 00:47:53;;;;;;;10.73;4.00;;;13.10;99.90;;;;;;4949874;28;20027;-47
2022/05/12 00:50:23;;;;;;;6.47;2.63;;;13.00;99.90;;;;;;4970541;28;20540;-47
2022/05/12 00:52:50;;;;;;;8.55;3.20;;;13.10;99.90;;;;;;4970332;28;20411;-47
2022/05/12 00:55:33;;;;;;;8.40;2.83;;;13.00;99.90;;;;;;4970891;28;20026;-47
2022/05/12 00:58:02;;;;;;;10.23;3.78;;;13.00;99.90;;;;;;4970207;28;20507;-46
2022/05/12 01:00:27;;;;;;;9.00;3.65;;;13.00;99.90;;;;;;4968495;28;20045;-50
2022/05/12 01:02:57;;;;;;;8.30;3.60;;;13.00;99.90;;;;;;4968028;28;20118;-51
2022/05/12 01:05:24;;;;;;;7.45;3.83;;;13.10;99.90;;;;;;4970504;28;20031;-47
2022/05/12 01:07:52;;;;;;;6.22;3.97;;;13.10;99.90;;;;;;4954027;28;20045;-48
2022/05/12 01:10:18;;;;;;;7.45;3.42;;;13.10;99.90;;;;;;4971137;28;20372;-48
2022/05/12 01:12:48;;;;;;;9.93;3.72;;;13.10;99.90;;;;;;4970438;28;20113;-48
2022/05/12 01:15:15;;;;;;;9.45;3.30;;;13.10;99.90;;;;;;4970627;28;20041;-46
2022/05/12 01:17:41;;;;;;;6.85;3.95;;;13.10;99.90;;;;;;4970863;28;20378;-49
2022/05/12 01:20:07;;;;;;;8.20;4.13;;;13.10;99.90;;;;;;4970459;28;20037;-50
2022/05/12 01:22:52;;;;;;;7.35;3.80;;;13.10;99.90;;;;;;4970369;28;20066;-47
2022/05/12 01:25:22;;;;;;;10.98;4.07;;;13.10;99.90;;;;;;4974276;28;20436;-47
2022/05/12 01:27:47;;;;;;;9.13;4.18;;;13.10;99.90;;;;;;4973635;28;20026;-51
2022/05/12 01:30:16;;;;;;;6.70;3.80;;;13.10;99.90;;;;;;4973644;28;20027;-47
2022/05/12 01:32:44;;;;;;;5.28;3.03;;;13.20;99.90;;;;;;4973789;28;20027;-49
2022/05/12 01:35:11;;;;;;;8.20;3.60;;;13.20;99.90;;;;;;4974032;28;20030;-48
2022/05/12 01:37:39;;;;;;;4.40;3.00;;;13.20;99.90;;;;;;4974049;28;20115;-49
2022/05/12 01:40:06;;;;;;;8.13;4.00;;;13.20;99.90;;;;;;4972766;28;20039;-49
2022/05/12 01:42:31;;;;;;;8.25;3.72;;;13.20;99.90;;;;;;4973240;28;20062;-48
2022/05/12 01:44:57;;;;;;;6.43;3.75;;;13.20;99.90;;;;;;4974249;28;20058;-48
2022/05/12 01:47:22;;;;;;;6.60;3.58;;;13.20;99.90;;;;;;4974403;28;20039;-53
2022/05/12 01:49:48;;;;;;;5.68;4.05;;;13.20;99.90;;;;;;4956250;28;20031;-47
2022/05/12 01:52:14;;;;;;;7.40;4.00;;;13.20;99.90;;;;;;4973222;28;20022;-49
2022/05/12 01:54:40;;;;;;;5.65;3.22;;;13.20;99.90;;;;;;4956199;28;20019;-50
2022/05/12 01:57:05;;;;;;;5.43;3.28;;;13.20;99.90;;;;;;4972966;28;20378;-47
2022/05/12 01:59:31;;;;;;;6.25;3.33;;;13.20;99.90;;;;;;4973102;28;20431;-48
2022/05/12 02:01:57;;;;;;;6.90;3.33;;;13.20;99.90;;;;;;4972739;28;20495;-50
2022/05/12 02:04:22;;;;;;;7.57;3.28;;;13.20;99.90;;;;;;4972809;28;20109;-52
2022/05/12 02:06:48;;;;;;;7.15;3.28;;;13.20;99.90;;;;;;4973323;28;20086;-51
2022/05/12 02:09:14;;;;;;;5.10;3.42;;;13.30;99.90;;;;;;4973253;28;20101;-48
2022/05/12 02:11:40;;;;;;;5.18;3.40;;;13.20;99.90;;;;;;4961672;28;20047;-51
2022/05/12 02:14:05;;;;;;;7.63;3.78;;;13.30;99.90;;;;;;4953669;28;20056;-49
2022/05/12 02:16:33;;;;;;;7.32;3.40;;;13.20;99.90;;;;;;4953777;29;20043;-50
2022/05/12 02:19:00;;;;;;;5.75;4.15;;;13.20;99.90;;;;;;4953373;29;20054;-51
2022/05/12 02:21:26;;;;;;;5.18;3.47;;;13.20;99.90;;;;;;4953216;29;20031;-51
2022/05/12 02:23:51;;;;;;;4.07;3.10;;;13.20;99.90;;;;;;4953423;28;20037;-48
2022/05/12 02:26:17;;;;;;;6.53;3.85;;;13.20;99.90;;;;;;4953298;29;20035;-47
2022/05/12 02:28:43;;;;;;;7.68;4.18;;;13.00;99.90;;;;;;4953284;29;20016;-53
2022/05/12 02:31:08;;;;;;;7.75;4.20;;;12.90;99.90;;;;;;4953333;29;20407;-55
2022/05/12 02:33:34;;;;;;;6.93;3.63;;;12.80;99.90;;;;;;4953262;28;20027;-52
2022/05/12 02:36:02;;;;;;;10.68;4.45;;;12.70;99.90;;;;;;4952525;28;20357;-52
2022/05/12 02:38:28;;;;;;;9.60;4.60;;;12.60;99.90;;;;;;4953288;29;20111;-52
2022/05/12 02:40:54;;;;;;;7.95;4.60;;;12.60;99.90;;;;;;4951882;29;20027;-49
2022/05/12 02:43:25;;;;;;;4.03;3.03;;;12.50;99.90;;;;;;4952877;28;20038;-49
2022/05/12 02:45:54;;;;;;;3.97;2.90;;;12.50;99.90;;;;;;4936095;29;20403;-49
2022/05/12 02:48:21;;;;;;;4.53;1.95;;;12.40;99.90;;;;;;4953120;29;20023;-52
2022/05/12 02:50:47;;;;;;;1.48;1.17;;;12.20;99.90;;;;;;4953021;29;20027;-49
2022/05/12 02:53:13;;;;;;;2.25;0.90;;;12.00;99.90;;;;;;4952756;28;20038;-51
2022/05/12 02:55:39;;;;;;;2.05;0.93;;;11.90;99.90;;;;;;4953020;29;20032;-49
2022/05/12 02:58:05;;;;;;;1.77;1.40;;;11.70;99.90;;;;;;4953022;29;20061;-47
2022/05/12 03:00:34;;;;;;;1.77;1.15;;;11.70;99.90;;;;;;4953045;29;20503;-47
2022/05/12 03:03:00;;;;;;;1.38;0.98;;;11.60;99.90;;;;;;4952860;28;20042;-47
2022/05/12 03:05:26;;;;;;;2.45;1.45;;;11.50;99.90;;;;;;4953116;29;20070;-48
2022/05/12 03:07:52;;;;;;;1.88;1.05;;;11.50;99.90;;;;;;4952673;29;20019;-52
2022/05/12 03:10:18;;;;;;;2.58;1.23;;;11.50;99.90;;;;;;4952674;29;20439;-50
2022/05/12 03:12:44;;;;;;;2.75;1.38;;;11.50;99.90;;;;;;4952316;28;20027;-48
2022/05/12 03:15:12;;;;;;;2.95;1.30;;;11.50;99.90;;;;;;4951849;29;20146;-47
2022/05/12 03:17:38;;;;;;;3.25;1.48;;;11.50;99.90;;;;;;4952389;29;20038;-51
2022/05/12 03:20:05;;;;;;;3.58;1.48;;;11.50;99.90;;;;;;4951522;29;20031;-51
2022/05/12 03:22:31;;;;;;;2.67;1.58;;;11.50;99.90;;;;;;4934507;28;20126;-47
2022/05/12 03:24:57;;;;;;;1.77;1.67;;;11.50;99.90;;;;;;4951697;29;20098;-49
2022/05/12 03:27:23;;;;;;;3.92;1.80;;;11.50;99.90;;;;;;4952297;29;20556;-51
2022/05/12 03:29:48;;;;;;;2.20;1.75;;;11.40;99.90;;;;;;4952393;29;20102;-48
2022/05/12 03:32:14;;;;;;;1.40;1.25;;;11.40;99.90;;;;;;4951817;29;20503;-49
2022/05/12 03:34:40;;;;;;;1.50;1.30;;;11.30;99.90;;;;;;4952386;28;20507;-47
2022/05/12 03:37:09;;;;;;;2.58;1.63;;;11.30;99.90;;;;;;4952587;29;20023;-48
2022/05/12 03:39:37;;;;;;;3.00;1.35;;;11.30;99.90;;;;;;4951443;29;20023;-48
2022/05/12 03:42:04;;;;;;;3.13;1.58;;;11.30;99.90;;;;;;4951770;29;20073;-50
2022/05/12 03:47:24;;;;;;;2.97;1.85;;;11.30;99.90;;;;;;4952578;28;20034;-49
2022/05/12 03:49:53;;;;;;;2.27;1.17;;;11.30;99.90;;;;;;4952702;29;20094;-47
2022/05/12 03:52:19;;;;;;;1.90;1.38;;;11.30;99.90;;;;;;4950904;28;20061;-48
2022/05/12 03:54:45;;;;;;;3.42;1.83;;;11.30;99.90;;;;;;4950820;29;20082;-48
2022/05/12 03:57:12;;;;;;;4.35;2.08;;;11.30;99.90;;;;;;4951735;29;20028;-47
2022/05/12 03:59:38;;;;;;;5.00;1.40;;;11.30;99.90;;;;;;4951847;29;20023;-49
2022/05/12 04:02:09;;;;;;;2.38;1.55;;;11.30;99.90;;;;;;4951070;29;20503;-47
2022/05/12 04:04:35;;;;;;;5.47;1.92;;;11.20;99.90;;;;;;4951799;28;20051;-50
2022/05/12 04:07:01;;;;;;;4.22;2.42;;;11.20;99.90;;;;;;4952033;29;20031;-47
2022/05/12 04:09:27;;;;;;;3.30;2.22;;;11.20;99.90;;;;;;4934444;29;20412;-47
2022/05/12 04:11:53;;;;;;;3.35;2.40;;;11.20;99.90;;;;;;4951577;29;20404;-47
2022/05/12 04:14:18;;;;;;;4.70;2.60;;;11.20;99.90;;;;;;4951905;28;20071;-47
2022/05/12 04:16:44;;;;;;;4.07;2.08;;;11.30;99.90;;;;;;4950792;29;20019;-48
2022/05/12 04:19:11;;;;;;;4.28;2.20;;;11.30;99.90;;;;;;4951998;29;20038;-49
2022/05/12 04:21:37;;;;;;;5.22;2.85;;;11.30;99.90;;;;;;4950314;29;20508;-48
2022/05/12 04:24:05;;;;;;;5.53;2.35;;;11.30;99.90;;;;;;4951293;28;20027;-47
2022/05/12 04:26:32;;;;;;;4.97;2.58;;;11.30;99.90;;;;;;4951641;29;20392;-48
2022/05/12 04:28:57;;;;;;;4.72;2.33;;;11.30;99.90;;;;;;4951597;29;20027;-49
2022/05/12 04:31:23;;;;;;;4.80;2.65;;;11.20;99.90;;;;;;4950257;29;20381;-49
2022/05/12 04:36:33;;;;;;;6.32;2.55;;;11.30;99.90;;;;;;4951539;29;20090;-52
2022/05/12 04:38:59;;;;;;;4.18;2.42;;;11.30;99.90;;;;;;4951423;29;20023;-50
2022/05/12 04:41:25;;;;;;;5.57;2.85;;;11.30;99.90;;;;;;4951035;29;20025;-50
2022/05/12 04:43:51;;;;;;;3.55;3.05;;;11.30;99.90;;;;;;4951063;28;20039;-52
2022/05/12 04:46:17;;;;;;;4.00;2.65;;;11.40;99.90;;;;;;4951757;29;20038;-54
2022/05/12 04:48:44;;;;;;;8.63;3.10;;;11.30;99.90;;;;;;4951513;29;20015;-48
2022/05/12 04:51:09;;;;;;;4.80;3.15;;;11.40;99.90;;;;;;4951208;29;20097;-48
2022/05/12 04:53:35;;;;;;;7.22;3.17;;;11.40;99.90;;;;;;4951118;28;20499;-52
2022/05/12 04:56:01;;;;;;;6.97;3.08;;;11.40;99.90;;;;;;4951746;29;20427;-52
2022/05/12 04:58:26;;;;;;;9.55;3.65;;;11.40;99.90;;;;;;4952866;28;20030;-50
2022/05/12 05:00:52;;;;;;;10.40;3.40;;;11.50;99.90;;;;;;4955215;29;20043;-49
2022/05/12 05:03:18;;;;;;;3.33;2.35;;;11.60;99.90;;;;;;4954645;28;20035;-49
2022/05/12 05:05:44;;;;;;;7.90;3.58;;;11.60;99.90;;;;;;4953955;29;20030;-47
2022/05/12 05:08:13;;;;;;;7.90;3.15;;;11.60;99.90;;;;;;4954915;29;20431;-50
2022/05/12 05:10:39;;;;;;;8.55;3.60;;;11.60;99.90;;;;;;4954885;29;20076;-51
2022/05/12 05:13:05;;;;;;;7.85;3.22;;;11.60;99.90;;;;;;4954203;28;20034;-48
2022/05/12 05:15:31;;;;;;;7.15;3.78;;;11.70;99.90;;;;;;4954716;29;20139;-48
2022/05/12 05:17:57;;;;;;;7.30;3.65;;;11.60;99.90;;;;;;4954949;29;20106;-49
2022/05/12 05:20:26;;;;;;;7.38;3.38;;;11.60;99.90;;;;;;4954277;29;20023;-53
2022/05/12 05:22:52;;;;;;;6.15;2.97;;;11.60;99.90;;;;;;4954243;28;20027;-51
2022/05/12 05:25:18;;;;;;;7.47;3.08;;;11.60;99.90;;;;;;4954094;29;20034;-52
2022/05/12 05:27:45;;;;;;;4.32;3.05;;;11.70;99.90;;;;;;4954516;29;20085;-49
2022/05/12 05:30:14;;;;;;;6.93;3.08;;;11.70;99.90;;;;;;4954287;29;20034;-48
2022/05/12 05:32:40;;;;;;;8.77;3.47;;;11.70;99.90;;;;;;4953870;28;20419;-52
2022/05/12 05:35:07;;;;;;;10.93;3.15;;;11.70;99.90;;;;;;4954431;29;20039;-47
2022/05/12 05:37:33;;;;;;;4.25;2.70;;;11.70;99.90;;;;;;4954371;29;20038;-47
2022/05/12 05:39:58;;;;;;;5.18;3.22;;;11.80;99.90;;;;;;4954298;29;20106;-50
2022/05/12 05:42:24;;;;;;;5.85;2.83;;;11.80;99.90;;;;;;4953551;28;20163;-48
2022/05/12 05:44:50;;;;;;;6.82;2.90;;;11.80;99.90;;;;;;4953883;29;20035;-46
2022/05/12 05:47:16;;;;;;;5.05;2.45;;;11.90;99.90;;;;;;4953838;29;20492;-49
2022/05/12 05:49:42;;;;;;;6.47;3.58;;;11.80;99.90;;;;;;4953958;29;20047;-48
2022/05/12 05:54:53;;;;;;;4.97;2.33;;;11.80;99.90;;;;;;4954120;29;20078;-49
2022/05/12 05:57:30;;;;;;;6.90;2.35;;;11.90;99.90;;;;;;4953640;29;20078;-48
2022/05/12 05:59:57;;;;;;;9.88;2.38;;;12.00;99.90;;;;;;4953802;29;20095;-50
2022/05/12 06:02:23;;;;;;;4.55;2.60;;;12.10;99.90;;;;;;4953630;28;20538;-48
2022/05/12 06:04:48;;;;;;;8.23;2.80;;;12.30;99.90;;;;;;4954105;29;20028;-47
2022/05/12 06:07:14;;;;;;;5.28;2.20;;;12.30;99.90;;;;;;4953300;29;20067;-48
2022/05/12 06:09:41;;;;;;;6.63;2.80;;;12.30;99.90;;;;;;4953981;28;20035;-47
2022/05/12 06:12:08;;;;;;;9.68;2.70;;;12.40;99.90;;;;;;4953867;29;20031;-48
2022/05/12 06:14:33;;;;;;;6.75;2.28;;;12.50;99.90;;;;;;4952705;28;20031;-51
2022/05/12 06:16:59;;;;;;;8.95;2.45;;;12.60;99.90;;;;;;4954217;29;20493;-51
2022/05/12 06:19:25;;;;;;;3.45;2.08;;;12.90;99.90;;;;;;4936117;29;20072;-50
2022/05/12 06:21:50;;;;;;;4.65;2.20;;;13.00;99.90;;;;;;4953288;29;20034;-47
2022/05/12 06:24:16;;;;;;;3.55;1.95;;;13.10;99.90;;;;;;4951983;28;20027;-49
2022/05/12 06:26:41;;;;;;;6.40;2.60;;;13.30;99.90;;;;;;4953691;29;20034;-48
2022/05/12 06:29:07;;;;;;;4.65;2.05;;;13.30;99.90;;;;;;4953705;29;20031;-49
2022/05/12 06:31:34;;;;;;;6.18;1.80;;;13.60;99.90;;;;;;4953334;29;20559;-49
2022/05/12 06:34:00;;;;;;;4.55;2.15;;;13.80;99.90;;;;;;4953572;28;20408;-48
2022/05/12 06:36:28;;;;;;;6.28;2.85;;;13.90;99.90;;;;;;4953418;29;20448;-48
2022/05/12 06:38:54;;;;;;;4.82;2.03;;;14.10;99.90;;;;;;4953514;29;20380;-49
2022/05/12 06:41:20;;;;;;;4.03;1.88;;;14.30;99.90;;;;;;4953319;29;20027;-47
2022/05/12 06:43:46;;;;;;;5.28;2.35;;;14.40;99.90;;;;;;4953513;28;20035;-50
2022/05/12 06:46:17;;;;;;;4.80;2.70;;;14.30;99.90;;;;;;4953554;29;20058;-53
2022/05/12 06:48:43;;;;;;;3.97;2.33;;;14.20;99.90;;;;;;4936174;29;20023;-53
2022/05/12 06:51:11;;;;;;;4.20;2.08;;;14.10;99.90;;;;;;4953233;29;20035;-50
2022/05/12 06:53:37;;;;;;;5.15;2.17;;;14.00;99.90;;;;;;4952321;28;20027;-51
2022/05/12 06:56:03;;;;;;;6.07;1.80;;;14.00;99.90;;;;;;4953518;29;20027;-50
2022/05/12 06:58:28;;;;;;;6.38;2.40;;;14.20;99.90;;;;;;4953198;29;20105;-48
2022/05/12 07:00:54;;;;;;;3.60;1.80;;;14.20;99.90;;;;;;4953039;29;20035;-50
2022/05/12 07:03:20;;;;;;;5.70;1.88;;;14.10;99.90;;;;;;4952342;28;20035;-53
2022/05/12 07:05:45;;;;;;;4.95;2.22;;;14.00;99.90;;;;;;4952833;29;20027;-53
2022/05/12 07:08:11;;;;;;;3.58;1.85;;;13.90;99.90;;;;;;4952402;29;20149;-50
2022/05/12 07:10:37;;;;;;;6.82;1.85;;;13.90;99.90;;;;;;4953184;29;20019;-47
2022/05/12 07:13:03;;;;;;;4.18;2.13;;;13.80;99.90;;;;;;4952630;28;20086;-48
2022/05/12 07:15:29;;;;;;;4.65;2.35;;;13.80;99.90;;;;;;4952861;29;20031;-52
2022/05/12 07:17:56;;;;;;;5.22;2.83;;;13.80;99.90;;;;;;4952752;29;20027;-49
2022/05/12 07:28:37;;;;;;;3.88;1.55;;;13.70;99.90;;;;;;4952694;29;20053;-48
2022/05/12 07:31:05;;;;;;;5.05;1.60;;;13.80;99.90;;;;;;4952604;29;20399;-48
2022/05/12 07:33:34;;;;;;;2.65;1.45;;;13.90;99.90;;;;;;4952564;28;20061;-48
2022/05/12 07:36:01;;;;;;;6.20;2.42;;;14.10;99.90;;;;;;4952865;29;20086;-51
2022/05/12 07:38:27;;;;;;;6.50;1.77;;;14.30;99.90;;;;;;4952466;29;20046;-50
2022/05/12 07:40:53;;;;;;;3.75;1.65;;;14.70;99.90;;;;;;4952307;29;20023;-50
2022/05/12 07:43:19;;;;;;;6.03;2.28;;;15.00;99.90;;;;;;4934993;29;20115;-48
2022/05/12 07:45:45;;;;;;;5.97;1.85;;;15.10;99.90;;;;;;4952176;29;20051;-50
2022/05/12 07:48:11;;;;;;;4.80;1.52;;;15.10;99.90;;;;;;4952566;29;20070;-49
2022/05/12 07:50:39;;;;;;;2.00;1.05;;;15.50;99.90;;;;;;4952395;29;20070;-51
2022/05/12 07:53:04;;;;;;;3.95;1.25;;;15.70;99.90;;;;;;4951816;28;20604;-49
2022/05/12 07:55:30;;;;;;;3.42;1.35;;;15.90;99.90;;;;;;4952287;29;20107;-48
2022/05/12 07:57:55;;;;;;;1.33;0.85;;;16.20;99.90;;;;;;4952362;29;20098;-48
2022/05/12 08:00:21;;;;;;;3.30;1.45;;;16.40;99.90;;;;;;4952215;29;20763;-51
2022/05/12 08:02:47;;;;;;;4.68;1.52;;;16.70;99.90;;;;;;4951637;28;20118;-51
2022/05/12 08:05:12;;;;;;;8.23;1.73;;;16.50;99.90;;;;;;4952255;29;20465;-52
2022/05/12 08:07:38;;;;;;;4.80;1.25;;;16.50;99.90;;;;;;4952083;29;20483;-52
2022/05/12 08:10:05;;;;;;;4.60;1.50;;;16.50;99.90;;;;;;4951971;29;20059;-55
2022/05/12 08:12:30;;;;;;;4.38;1.42;;;16.60;99.90;;;;;;4951964;28;20054;-49
2022/05/12 08:14:56;;;;;;;5.55;1.75;;;16.50;99.90;;;;;;4952245;29;20132;-49
2022/05/12 08:17:22;;;;;;;4.95;1.48;;;16.50;99.90;;;;;;4952120;29;20031;-53
2022/05/12 08:19:48;;;;;;;5.32;1.80;;;16.80;99.90;;;;;;4951348;29;20491;-51
2022/05/12 08:22:13;;;;;;;3.15;1.20;;;16.90;99.90;;;;;;4951703;29;20046;-50
2022/05/12 08:24:39;;;;;;;5.03;1.67;;;16.80;99.90;;;;;;4951354;28;20031;-48
2022/05/12 08:27:05;;;;;;;3.15;1.55;;;17.00;99.90;;;;;;4951918;29;20034;-51
2022/05/12 08:29:30;;;;;;;7.25;2.00;;;17.30;99.90;;;;;;4951774;29;20550;-51
2022/05/12 08:31:56;;;;;;;4.28;1.27;;;17.30;99.90;;;;;;4951507;28;20074;-50
2022/05/12 08:34:22;;;;;;;2.78;1.20;;;17.10;99.90;;;;;;4953104;28;20039;-51
2022/05/12 08:36:49;;;;;;;7.43;1.70;;;17.20;99.90;;;;;;4955551;29;20526;-49
2022/05/12 08:39:16;;;;;;;4.70;1.45;;;17.00;99.90;;;;;;4955409;29;20031;-52
2022/05/12 08:41:58;;;;;;;2.17;1.33;;;17.10;99.90;;;;;;4955130;29;20503;-51
2022/05/12 08:44:24;;;;;;;6.45;1.75;;;17.10;99.90;;;;;;4953869;28;20427;-50
2022/05/12 08:46:59;;;;;;;3.10;1.23;;;17.00;99.90;;;;;;4954259;29;20624;-51
2022/05/12 08:49:30;;;;;;;1.90;1.40;;;17.10;99.90;;;;;;4955890;29;20028;-53
2022/05/12 08:52:11;;;;;;;2.92;1.30;;;17.20;99.90;;;;;;4955352;29;20027;-55
2022/05/12 08:54:40;;;;;;;1.50;1.13;;;17.60;99.90;;;;;;4955346;28;20027;-52
2022/05/12 08:57:09;;;;;;;2.80;1.10;;;17.90;99.90;;;;;;4955386;29;20026;-51
2022/05/12 08:59:37;;;;;;;2.92;1.13;;;18.00;99.90;;;;;;4955286;29;20031;-50
2022/05/12 09:02:32;;;;;;;2.67;1.10;;;17.80;99.90;;;;;;4955013;29;20086;-52
2022/05/12 09:05:06;;;;;;;3.78;1.27;;;17.70;99.90;;;;;;4955110;29;20114;-52
2022/05/12 09:07:38;;;;;;;3.30;1.30;;;17.60;99.90;;;;;;4955197;29;20390;-53
2022/05/12 09:10:06;;;;;;;4.68;1.10;;;17.60;99.90;;;;;;4955098;29;20031;-51
2022/05/12 09:12:48;;;;;;;3.83;1.52;;;17.50;99.90;;;;;;4954714;28;20050;-51
2022/05/12 09:15:30;;;;;;;3.20;1.45;;;17.30;99.90;;;;;;4955098;29;20027;-51
2022/05/12 09:18:21;;;;;;;3.92;1.48;;;17.40;99.90;;;;;;4937690;29;20023;-53
2022/05/12 09:20:46;;;;;;;3.38;1.15;;;17.40;99.90;;;;;;4953449;29;20045;-49
2022/05/12 09:23:12;;;;;;;2.90;1.48;;;17.60;99.90;;;;;;4954753;28;20031;-50
2022/05/12 09:25:44;;;;;;;2.00;1.05;;;17.90;99.90;;;;;;4954991;29;20030;-52
2022/05/12 09:28:34;;;;;;;6.05;1.13;;;17.70;99.90;;;;;;4955095;29;20035;-54
2022/05/12 09:31:26;;;;;;;2.35;1.30;;;17.70;99.90;;;;;;4954943;29;20035;-50
2022/05/12 09:33:52;;;;;;;6.43;1.42;;;18.00;99.90;;;;;;4952756;28;20121;-50
2022/05/12 09:36:23;;;;;;;5.15;1.63;;;17.70;99.10;;;;;;4954599;29;20111;-49
2022/05/12 09:38:54;;;;;;;1.63;0.88;;;17.60;99.90;;;;;;4954550;29;20027;-48
2022/05/12 09:41:23;;;;;;;4.45;1.20;;;17.30;99.40;;;;;;4954245;29;20031;-54
2022/05/12 09:43:53;;;;;;;3.28;1.48;;;17.30;99.90;;;;;;4953614;28;20040;-51
2022/05/12 09:46:31;;;;;;;2.10;0.63;;;17.50;99.90;;;;;;4954387;29;20061;-54
2022/05/12 09:49:20;;;;;;;3.38;1.33;;;17.80;99.90;;;;;;4954359;29;20027;-52
2022/05/12 09:51:46;;;;;;;4.53;1.00;;;17.90;99.90;;;;;;4954151;29;20024;-48
2022/05/12 09:54:27;;;;;;;4.03;1.10;;;17.60;98.40;;;;;;4954168;28;20411;-50
2022/05/12 09:57:14;;;;;;;4.10;0.93;;;17.50;99.30;;;;;;4954217;29;20031;-49
2022/05/12 09:59:42;;;;;;;4.72;1.30;;;17.60;99.90;;;;;;4954207;29;20467;-55
2022/05/12 10:08:26;;;;;;;5.50;1.00;;;18.00;97.90;;;;;;4954643;29;20038;-52
2022/05/12 10:11:00;;;;;;;3.28;1.02;;;17.70;99.40;;;;;;4954024;29;20073;-49
2022/05/12 10:13:46;;;;;;;4.53;0.85;;;17.60;98.20;;;;;;4953742;28;20035;-49
2022/05/12 10:16:19;;;;;;;3.58;0.63;;;17.70;99.90;;;;;;4953914;29;20070;-48
2022/05/12 10:18:48;;;;;;;7.47;1.23;;;18.00;99.90;;;;;;4952437;29;20031;-51
2022/05/12 10:21:42;;;;;;;1.88;0.80;;;18.00;97.60;;;;;;4953890;29;20031;-50
2022/05/12 10:24:14;;;;;;;4.68;1.08;;;18.10;98.00;;;;;;4952902;28;20031;-56
2022/05/12 10:26:54;;;;;;;3.78;1.13;;;18.10;97.10;;;;;;4952936;29;20071;-55
2022/05/12 10:29:57;;;;;;;1.88;0.70;;;18.30;99.90;;;;;;4954242;29;20074;-52
2022/05/12 10:32:51;;;;;;;2.88;1.05;;;18.40;94.40;;;;;;4953562;28;20034;-52
2022/05/12 10:35:32;;;;;;;4.05;1.23;;;18.20;94.90;;;;;;4953857;29;20023;-54
2022/05/12 10:38:06;;;;;;;2.53;0.85;;;17.90;95.10;;;;;;4953729;29;20491;-50
2022/05/12 10:40:43;;;;;;;4.20;1.08;;;17.70;95.70;;;;;;4953610;29;20033;-54
2022/05/12 10:43:36;;;;;;;2.35;0.73;;;17.50;96.00;;;;;;4952181;28;20082;-53
2022/05/12 10:46:23;;;;;;;3.67;0.82;;;17.40;95.70;;;;;;4953741;29;20163;-51
2022/05/12 10:48:56;;;;;;;3.35;0.55;;;17.30;96.60;;;;;;4953425;29;20030;-53
2022/05/12 10:51:48;;;;;;;3.53;1.00;;;17.30;96.50;;;;;;4953195;29;20023;-54
2022/05/12 10:54:24;;;;;;;3.25;0.73;;;17.10;97.00;;;;;;4953318;28;20110;-53
2022/05/12 10:57:09;;;;;;;1.98;0.55;;;17.00;95.70;;;;;;4951624;28;20134;-51
2022/05/12 10:59:49;;;;;;;2.38;0.85;;;16.90;96.30;;;;;;4956033;29;20249;-54
2022/05/12 11:02:23;;;;;;;2.70;0.93;;;16.70;96.50;;;;;;4952901;29;20038;-53
2022/05/12 11:04:53;;;;;;;2.40;0.70;;;16.80;97.60;;;;;;4953152;29;20030;-55
2022/05/12 11:07:47;;;;;;;1.55;0.82;;;17.00;97.40;;;;;;4953020;29;20023;-51
2022/05/12 11:10:36;;;;;;;4.28;1.00;;;17.40;97.80;;;;;;4952637;29;20110;-51
2022/05/12 11:13:10;;;;;;;5.10;1.20;;;17.50;96.60;;;;;;4952693;28;20038;-51
2022/05/12 11:16:03;;;;;;;2.83;0.80;;;17.50;96.50;;;;;;4952646;29;20035;-53
2022/05/12 11:18:34;;;;;;;3.58;1.02;;;17.40;95.90;;;;;;4951354;29;20027;-49
2022/05/12 11:21:19;;;;;;;3.42;0.98;;;17.30;96.10;;;;;;4953162;29;20038;-52
2022/05/12 11:24:10;;;;;;;2.63;0.82;;;17.30;97.70;;;;;;4952552;28;20027;-48
2022/05/12 11:27:12;;;;;;;4.57;1.10;;;17.30;97.20;;;;;;4953427;29;20023;-52
2022/05/12 11:30:02;;;;;;;5.60;0.85;;;17.20;98.40;;;;;;4952616;29;20023;-52
2022/05/12 11:32:44;;;;;;;1.23;1.10;;;17.20;97.20;;;;;;4952158;28;20023;-50
2022/05/12 11:35:11;;;;;;;1.98;0.80;;;17.10;96.60;;;;;;4952377;29;20495;-54
2022/05/12 11:37:43;;;;;;;2.95;0.90;;;16.90;97.50;;;;;;4952519;29;20031;-50
2022/05/12 11:40:33;;;;;;;2.30;0.98;;;16.90;97.50;;;;;;4952340;29;20031;-55
2022/05/12 11:45:48;;;;;;;3.88;1.15;;;17.20;98.50;;;;;;4952682;29;20561;-52
2022/05/12 11:48:38;;;;;;;2.92;1.15;;;17.60;97.00;;;;;;4952373;29;20118;-53
2022/05/12 11:51:18;;;;;;;1.75;1.17;;;17.80;99.40;;;;;;4952106;29;20074;-50
2022/05/12 11:54:01;;;;;;;2.63;1.13;;;17.80;96.50;;;;;;4952229;28;20023;-53
2022/05/12 11:56:49;;;;;;;1.85;0.80;;;17.90;98.60;;;;;;4952364;29;20034;-51
2022/05/12 11:59:26;;;;;;;5.53;1.23;;;18.10;95.50;;;;;;4952283;29;20092;-55
2022/05/12 12:01:59;;;;;;;1.25;0.70;;;18.30;95.40;;;;;;4951209;29;20189;-52
2022/05/12 12:04:36;;;;;;;5.45;1.42;;;18.40;93.90;;;;;;4951883;28;20055;-51
2022/05/12 12:07:04;;;;;;;2.05;1.30;;;18.40;94.10;;;;;;4951912;29;20050;-51
2022/05/12 12:09:36;;;;;;;1.95;0.90;;;18.60;94.50;;;;;;4951894;29;20030;-52
2022/05/12 12:12:08;;;;;;;4.22;0.88;;;18.70;92.80;;;;;;4951673;29;20030;-49
2022/05/12 12:14:42;;;;;;;3.03;1.00;;;18.60;94.00;;;;;;4951888;28;20120;-52
2022/05/12 12:17:11;;;;;;;4.47;0.90;;;18.80;92.70;;;;;;4952092;29;20031;-49
2022/05/12 12:19:49;;;;;;;4.40;1.00;;;18.70;92.70;;;;;;4951889;29;20464;-52
2022/05/12 12:22:20;;;;;;;2.70;0.80;;;18.70;93.10;;;;;;4951974;29;20031;-53
2022/05/12 12:25:04;;;;;;;5.55;1.13;;;18.60;92.30;;;;;;4951496;29;20781;-52
2022/05/12 12:27:30;;;;;;;4.38;1.23;;;18.50;91.70;;;;;;4951807;29;20031;-51
2022/05/12 12:30:23;;;;;;;2.25;0.90;;;18.50;92.00;;;;;;4951533;29;20023;-51
2022/05/12 12:33:18;;;;;;;3.97;1.30;;;18.60;91.60;;;;;;4951318;28;20039;-52
2022/05/12 12:36:00;;;;;;;1.23;0.73;;;18.50;91.20;;;;;;4951960;29;20030;-50
2022/05/12 12:39:04;;;;;;;3.38;0.98;;;18.50;91.20;;;;;;4951882;29;20037;-53
2022/05/12 12:41:29;;;;;;;5.80;1.27;;;18.40;92.40;;;;;;4951653;29;20131;-52
2022/05/12 12:44:11;;;;;;;1.40;0.90;;;18.20;92.90;;;;;;4951526;28;20516;-50
2022/05/12 12:47:14;;;;;;;4.47;0.90;;;18.10;92.40;;;;;;4951715;29;20103;-51
2022/05/12 12:50:08;;;;;;;2.97;1.00;;;17.90;92.70;;;;;;4951620;29;20023;-51
2022/05/12 12:52:46;;;;;;;1.65;0.70;;;17.80;93.20;;;;;;4951168;28;20026;-54
2022/05/12 12:58:28;;;;;;;2.45;1.10;;;18.40;93.30;;;;;;4951904;29;20029;-53
2022/05/12 13:00:58;;;;;;;2.50;1.30;;;18.50;93.10;;;;;;4951524;29;20038;-51
2022/05/12 13:03:29;;;;;;;2.92;1.15;;;18.40;91.40;;;;;;4950997;28;20047;-50
2022/05/12 13:06:08;;;;;;;1.85;0.80;;;18.30;92.70;;;;;;4952653;29;20368;-54
2022/05/12 13:08:34;;;;;;;3.17;0.68;;;18.40;93.60;;;;;;4952374;29;20031;-52
2022/05/12 13:11:02;;;;;;;4.97;1.27;;;18.50;93.50;;;;;;4951761;29;20031;-53
2022/05/12 13:13:29;;;;;;;3.20;1.20;;;18.70;93.90;;;;;;4951431;28;20720;-54
2022/05/12 13:16:03;;;;;;;4.15;1.15;;;19.00;93.70;;;;;;4951606;29;20039;-52
2022/05/12 13:18:34;;;;;;;3.45;0.85;;;19.10;91.70;;;;;;4951433;28;20031;-51
2022/05/12 13:21:03;;;;;;;3.50;0.80;;;18.90;92.20;;;;;;4954910;29;20031;-51
2022/05/12 13:23:36;;;;;;;2.42;1.02;;;18.90;92.50;;;;;;4954675;28;20031;-51
2022/05/12 13:26:06;;;;;;;2.08;1.10;;;18.90;91.90;;;;;;4954446;29;20126;-49
2022/05/12 13:28:36;;;;;;;2.45;0.93;;;19.00;92.10;;;;;;4954811;29;20027;-49
2022/05/12 13:31:16;;;;;;;5.18;1.35;;;18.90;92.70;;;;;;4954692;29;20090;-52